createdAt,value
2019-03-21T00:02:08.250Z,102811.00
2019-03-21T00:04:41.517Z,102800.00
2019-03-21T00:07:11.876Z,102798.00
2019-03-21T00:10:03.055Z,102798.00
2019-03-21T00:12:33.411Z,102800.00
2019-03-21T00:15:10.903Z,102796.00
2019-03-21T00:17:46.270Z,102794.00
2019-03-21T00:20:18.268Z,102796.00
2019-03-21T00:22:48.669Z,102798.00
2019-03-21T00:25:25.132Z,102801.00
2019-03-21T00:27:55.535Z,102794.00
2019-03-21T00:30:27.615Z,102795.00
2019-03-21T00:32:59.113Z,102796.00
2019-03-21T00:35:29.494Z,102795.00
2019-03-21T00:37:59.855Z,102795.00
2019-03-21T00:40:34.220Z,102801.00
2019-03-21T00:43:09.724Z,102807.00
2019-03-21T00:45:40.111Z,102797.00
2019-03-21T00:48:14.284Z,102800.00
2019-03-21T00:50:44.668Z,102808.00
2019-03-21T00:53:15.039Z,102807.00
2019-03-21T00:55:50.433Z,102800.00
2019-03-21T00:58:40.342Z,102801.00
2019-03-21T01:01:11.146Z,102799.00
2019-03-21T01:03:41.507Z,102804.00
2019-03-21T01:06:11.897Z,102795.00
2019-03-21T01:08:42.252Z,102800.00
2019-03-21T01:11:12.642Z,102796.00
2019-03-21T01:13:43.005Z,102793.00
2019-03-21T01:16:13.399Z,102788.00
2019-03-21T01:18:46.874Z,102787.00
2019-03-21T01:21:17.256Z,102788.00
2019-03-21T01:23:47.625Z,102781.00
2019-03-21T01:26:18.015Z,102780.00
2019-03-21T01:28:48.387Z,102785.00
2019-03-21T01:31:18.779Z,102783.00
2019-03-21T01:33:49.148Z,102790.00
2019-03-21T01:36:22.551Z,102792.00
2019-03-21T01:38:52.920Z,102776.00
2019-03-21T01:41:23.316Z,102773.00
2019-03-21T01:43:53.682Z,102774.00
2019-03-21T01:46:26.474Z,102777.00
2019-03-21T01:48:57.103Z,102768.00
2019-03-21T01:51:27.499Z,102761.00
2019-03-21T01:53:57.860Z,102764.00
2019-03-21T01:56:30.765Z,102764.00
2019-03-21T01:59:01.170Z,102763.00
2019-03-21T02:01:31.560Z,102762.00
2019-03-21T02:04:01.921Z,102763.00
2019-03-21T02:06:32.310Z,102760.00
2019-03-21T02:09:03.386Z,102761.00
2019-03-21T02:11:33.770Z,102757.00
2019-03-21T02:14:04.139Z,102755.00
2019-03-21T02:16:34.523Z,102746.00
2019-03-21T02:19:04.880Z,102752.00
2019-03-21T02:21:35.272Z,102751.00
2019-03-21T02:24:06.272Z,102751.00
2019-03-21T02:26:36.667Z,102748.00
2019-03-21T02:29:07.037Z,102752.00
2019-03-21T02:31:37.435Z,102748.00
2019-03-21T02:34:07.866Z,102752.00
2019-03-21T02:36:38.494Z,102739.00
2019-03-21T02:39:09.012Z,102747.00
2019-03-21T02:41:39.401Z,102749.00
2019-03-21T02:44:09.775Z,102739.00
2019-03-21T02:46:40.156Z,102738.00
2019-03-21T02:49:10.535Z,102739.00
2019-03-21T02:51:40.913Z,102742.00
2019-03-21T02:54:11.275Z,102738.00
2019-03-21T02:56:41.675Z,102738.00
2019-03-21T02:59:12.042Z,102740.00
2019-03-21T03:01:42.442Z,102742.00
2019-03-21T03:04:12.796Z,102745.00
2019-03-21T03:06:43.179Z,102746.00
2019-03-21T03:09:13.547Z,102745.00
2019-03-21T03:11:44.121Z,102747.00
2019-03-21T03:14:14.498Z,102745.00
2019-03-21T03:16:44.886Z,102743.00
2019-03-21T03:19:15.251Z,102745.00
2019-03-21T03:21:45.627Z,102746.00
2019-03-21T03:24:16.260Z,102751.00
2019-03-21T03:26:46.633Z,102745.00
2019-03-21T03:29:17.015Z,102747.00
2019-03-21T03:31:47.375Z,102752.00
2019-03-21T03:34:17.764Z,102753.00
2019-03-21T03:36:48.104Z,102753.00
2019-03-21T03:39:18.484Z,102766.00
2019-03-21T03:42:08.243Z,102764.00
2019-03-21T03:44:38.621Z,102765.00
2019-03-21T03:47:08.987Z,102756.00
2019-03-21T03:49:39.380Z,102756.00
2019-03-21T03:52:09.742Z,102760.00
2019-03-21T03:54:40.120Z,102752.00
2019-03-21T03:57:10.481Z,102755.00
2019-03-21T03:59:40.863Z,102753.00
2019-03-21T04:02:11.216Z,102759.00
2019-03-21T04:04:41.673Z,102763.00
2019-03-21T04:07:12.207Z,102769.00
2019-03-21T04:09:42.585Z,102769.00
2019-03-21T04:12:13.274Z,102767.00
2019-03-21T04:14:43.662Z,102766.00
2019-03-21T04:17:14.027Z,102767.00
2019-03-21T04:19:44.412Z,102764.00
2019-03-21T04:22:14.779Z,102768.00
2019-03-21T04:24:45.262Z,102769.00
2019-03-21T04:27:15.619Z,102770.00
2019-03-21T04:29:45.995Z,102773.00
2019-03-21T04:32:16.365Z,102762.00
2019-03-21T04:34:46.743Z,102766.00
2019-03-21T04:37:17.103Z,102764.00
2019-03-21T04:39:47.491Z,102769.00
2019-03-21T04:42:17.840Z,102782.00
2019-03-21T04:44:48.227Z,102770.00
2019-03-21T04:47:18.578Z,102770.00
2019-03-21T04:49:48.964Z,102778.00
2019-03-21T04:52:19.321Z,102781.00
2019-03-21T04:54:49.714Z,102778.00
2019-03-21T04:57:20.069Z,102778.00
2019-03-21T04:59:50.450Z,102780.00
2019-03-21T05:02:21.043Z,102772.00
2019-03-21T05:04:51.426Z,102784.00
2019-03-21T05:07:21.787Z,102775.00
2019-03-21T05:09:53.141Z,102768.00
2019-03-21T05:12:23.506Z,102770.00
2019-03-21T05:14:53.894Z,102769.00
2019-03-21T05:17:24.258Z,102775.00
2019-03-21T05:19:54.642Z,102774.00
2019-03-21T05:22:25.064Z,102776.00
2019-03-21T05:24:55.449Z,102773.00
2019-03-21T05:27:25.820Z,102773.00
2019-03-21T05:29:56.221Z,102771.00
2019-03-21T05:32:26.580Z,102769.00
2019-03-21T05:34:56.982Z,102777.00
2019-03-21T05:37:27.345Z,102776.00
2019-03-21T05:39:57.721Z,102776.00
2019-03-21T05:42:28.104Z,102776.00
2019-03-21T05:44:58.571Z,102778.00
2019-03-21T05:47:28.967Z,102774.00
2019-03-21T05:49:59.336Z,102783.00
2019-03-21T05:52:29.728Z,102781.00
2019-03-21T05:55:00.125Z,102779.00
2019-03-21T05:57:30.553Z,102784.00
2019-03-21T06:00:00.926Z,102792.00
2019-03-21T06:02:31.315Z,102794.00
2019-03-21T06:05:01.678Z,102793.00
2019-03-21T06:07:33.683Z,102798.00
2019-03-21T06:10:10.315Z,102792.00
2019-03-21T06:12:42.366Z,102787.00
2019-03-21T06:15:17.411Z,102789.00
2019-03-21T06:18:09.711Z,102790.00
2019-03-21T06:21:01.866Z,102800.00
2019-03-21T06:23:48.932Z,102807.00
2019-03-21T06:26:41.888Z,102809.00
2019-03-21T06:29:12.254Z,102809.00
2019-03-21T06:31:42.649Z,102817.00
2019-03-21T06:34:13.023Z,102827.00
2019-03-21T06:36:43.419Z,102808.00
2019-03-21T06:39:13.785Z,102817.00
2019-03-21T06:41:44.172Z,102817.00
2019-03-21T06:44:15.612Z,102820.00
2019-03-21T06:46:49.760Z,102822.00
2019-03-21T06:49:18.085Z,102821.00
2019-03-21T06:51:48.478Z,102832.00
2019-03-21T06:54:18.845Z,102834.00
2019-03-21T06:56:49.241Z,102841.00
2019-03-21T06:59:19.625Z,102834.00
2019-03-21T07:01:50.017Z,102835.00
2019-03-21T07:04:20.377Z,102845.00
2019-03-21T07:06:50.767Z,102845.00
2019-03-21T07:09:21.128Z,102845.00
2019-03-21T07:11:51.522Z,102852.00
2019-03-21T07:14:21.888Z,102847.00
2019-03-21T07:17:00.394Z,102845.00
2019-03-21T07:19:24.421Z,102856.00
2019-03-21T07:21:55.152Z,102854.00
2019-03-21T07:24:25.582Z,102857.00
2019-03-21T07:26:55.920Z,102863.00
2019-03-21T07:29:26.297Z,102865.00
2019-03-21T07:31:56.684Z,102869.00
2019-03-21T07:34:27.086Z,102868.00
2019-03-21T07:36:57.627Z,102869.00
2019-03-21T07:39:28.780Z,102873.00
2019-03-21T07:42:01.200Z,102876.00
2019-03-21T07:44:31.429Z,102877.00
2019-03-21T07:47:12.347Z,102875.00
2019-03-21T07:49:33.929Z,102875.00
2019-03-21T07:52:04.292Z,102869.00
2019-03-21T07:54:34.681Z,102872.00
2019-03-21T07:57:05.049Z,102877.00
2019-03-21T07:59:35.454Z,102871.00
2019-03-21T08:02:05.815Z,102875.00
2019-03-21T08:04:36.210Z,102883.00
2019-03-21T08:07:06.576Z,102874.00
2019-03-21T08:09:39.870Z,102880.00
2019-03-21T08:12:10.523Z,102875.00
2019-03-21T08:14:41.373Z,102881.00
2019-03-21T08:17:11.868Z,102885.00
2019-03-21T08:19:42.310Z,102876.00
2019-03-21T08:22:12.674Z,102883.00
2019-03-21T08:24:43.908Z,102878.00
2019-03-21T08:27:14.286Z,102883.00
2019-03-21T08:29:56.763Z,102881.00
2019-03-21T08:32:27.129Z,102887.00
2019-03-21T08:34:57.513Z,102895.00
2019-03-21T08:37:27.881Z,102899.00
2019-03-21T08:39:58.283Z,102898.00
2019-03-21T08:42:28.646Z,102901.00
2019-03-21T08:44:59.037Z,102903.00
2019-03-21T08:47:29.410Z,102897.00
2019-03-21T08:49:59.811Z,102903.00
2019-03-21T08:52:30.228Z,102897.00
2019-03-21T08:55:00.612Z,102897.00
2019-03-21T08:57:32.060Z,102889.00
2019-03-21T09:00:02.526Z,102889.00
2019-03-21T09:02:32.897Z,102897.00
2019-03-21T09:05:03.659Z,102900.00
2019-03-21T09:07:34.023Z,102906.00
2019-03-21T09:10:08.579Z,102889.00
2019-03-21T09:12:38.968Z,102886.00
2019-03-21T09:15:10.502Z,102900.00
2019-03-21T09:17:40.949Z,102891.00
2019-03-21T09:20:12.351Z,102891.00
2019-03-21T09:22:43.052Z,102902.00
2019-03-21T09:25:13.511Z,102901.00
2019-03-21T09:27:43.878Z,102899.00
2019-03-21T09:30:16.073Z,102898.00
2019-03-21T09:32:46.436Z,102899.00
2019-03-21T09:35:16.832Z,102905.00
2019-03-21T09:37:47.197Z,102899.00
2019-03-21T09:40:17.648Z,102899.00
2019-03-21T09:42:48.021Z,102890.00
2019-03-21T09:45:18.487Z,102899.00
2019-03-21T09:47:48.857Z,102884.00
2019-03-21T09:50:29.610Z,102888.00
2019-03-21T09:53:00.051Z,102883.00
2019-03-21T09:55:30.435Z,102898.00
2019-03-21T09:58:00.808Z,102889.00
2019-03-21T10:00:36.408Z,102883.00
2019-03-21T10:03:08.123Z,102881.00
2019-03-21T10:05:38.522Z,102885.00
2019-03-21T10:08:08.901Z,102885.00
2019-03-21T10:10:39.300Z,102879.00
2019-03-21T10:13:09.665Z,102889.00
2019-03-21T10:15:40.722Z,102884.00
2019-03-21T10:18:11.088Z,102886.00
2019-03-21T10:20:41.487Z,102886.00
2019-03-21T10:23:12.906Z,102890.00
2019-03-21T10:25:43.284Z,102886.00
2019-03-21T10:28:16.682Z,102900.00
2019-03-21T10:30:47.184Z,102891.00
2019-03-21T10:33:17.682Z,102895.00
2019-03-21T10:35:48.058Z,102889.00
2019-03-21T10:38:22.300Z,102891.00
2019-03-21T10:40:52.685Z,102888.00
2019-03-21T10:43:23.057Z,102888.00
2019-03-21T10:45:53.447Z,102882.00
2019-03-21T10:48:23.871Z,102884.00
2019-03-21T10:50:54.261Z,102881.00
2019-03-21T10:53:24.646Z,102878.00
2019-03-21T10:55:55.054Z,102881.00
2019-03-21T10:58:25.428Z,102888.00
2019-03-21T11:00:55.837Z,102880.00
2019-03-21T11:03:26.199Z,102871.00
2019-03-21T11:05:56.593Z,102874.00
2019-03-21T11:08:31.352Z,102872.00
2019-03-21T11:11:02.694Z,102882.00
2019-03-21T11:13:33.380Z,102876.00
2019-03-21T11:16:03.740Z,102874.00
2019-03-21T11:18:36.310Z,102866.00
2019-03-21T11:21:06.381Z,102868.00
2019-03-21T11:23:36.776Z,102867.00
2019-03-21T11:26:07.197Z,102871.00
2019-03-21T11:28:40.604Z,102869.00
2019-03-21T11:31:11.009Z,102870.00
2019-03-21T11:33:41.440Z,102863.00
2019-03-21T11:36:11.760Z,102861.00
2019-03-21T11:38:42.157Z,102855.00
2019-03-21T11:41:12.544Z,102850.00
2019-03-21T11:43:42.930Z,102851.00
2019-03-21T11:46:13.384Z,102849.00
2019-03-21T11:48:43.760Z,102851.00
2019-03-21T11:51:14.135Z,102850.00
2019-03-21T11:53:44.517Z,102852.00
2019-03-21T11:56:16.013Z,102848.00
2019-03-21T11:58:46.353Z,102852.00
2019-03-21T12:01:16.732Z,102841.00
2019-03-21T12:03:47.120Z,102846.00
2019-03-21T12:06:17.490Z,102849.00
2019-03-21T12:08:47.876Z,102841.00
2019-03-21T12:11:18.249Z,102847.00
2019-03-21T12:13:48.651Z,102846.00
2019-03-21T12:16:19.023Z,102843.00
2019-03-21T12:18:49.436Z,102840.00
2019-03-21T12:21:19.801Z,102834.00
2019-03-21T12:23:50.207Z,102834.00
2019-03-21T12:26:20.577Z,102842.00
2019-03-21T12:28:50.974Z,102835.00
2019-03-21T12:31:21.350Z,102839.00
2019-03-21T12:33:51.747Z,102827.00
2019-03-21T12:36:22.113Z,102832.00
2019-03-21T12:38:52.531Z,102828.00
2019-03-21T12:41:22.893Z,102827.00
2019-03-21T12:43:53.288Z,102821.00
2019-03-21T12:46:23.664Z,102817.00
2019-03-21T12:48:54.072Z,102815.00
2019-03-21T12:51:24.437Z,102826.00
2019-03-21T12:53:54.826Z,102817.00
2019-03-21T12:56:25.196Z,102814.00
2019-03-21T12:58:55.584Z,102812.00
2019-03-21T13:01:26.049Z,102801.00
2019-03-21T13:03:56.450Z,102803.00
2019-03-21T13:06:26.905Z,102800.00
2019-03-21T13:08:57.293Z,102801.00
2019-03-21T13:11:27.752Z,102803.00
2019-03-21T13:13:58.191Z,102781.00
2019-03-21T13:16:28.557Z,102788.00
2019-03-21T13:18:58.950Z,102772.00
2019-03-21T13:21:29.322Z,102770.00
2019-03-21T13:23:59.714Z,102781.00
2019-03-21T13:26:30.088Z,102781.00
2019-03-21T13:29:00.482Z,102775.00
2019-03-21T13:31:30.854Z,102771.00
2019-03-21T13:34:01.246Z,102773.00
2019-03-21T13:36:44.048Z,102773.00
2019-03-21T13:39:26.813Z,102775.00
2019-03-21T13:41:57.194Z,102777.00
2019-03-21T13:44:27.586Z,102779.00
2019-03-21T13:46:57.960Z,102772.00
2019-03-21T13:49:29.429Z,102769.00
2019-03-21T13:51:59.794Z,102771.00
2019-03-21T13:54:30.190Z,102768.00
2019-03-21T13:57:00.556Z,102760.00
2019-03-21T13:59:31.060Z,102758.00
2019-03-21T14:02:01.428Z,102757.00
2019-03-21T14:04:31.820Z,102753.00
2019-03-21T14:07:02.206Z,102751.00
2019-03-21T14:09:32.604Z,102752.00
2019-03-21T14:12:03.050Z,102748.00
2019-03-21T14:14:33.411Z,102741.00
2019-03-21T14:17:03.946Z,102730.00
2019-03-21T14:19:34.343Z,102736.00
2019-03-21T14:22:04.715Z,102731.00
2019-03-21T14:24:35.101Z,102724.00
2019-03-21T14:27:05.482Z,102733.00
2019-03-21T14:29:35.869Z,102729.00
2019-03-21T14:32:07.207Z,102725.00
2019-03-21T14:34:37.598Z,102733.00
2019-03-21T14:37:07.966Z,102732.00
2019-03-21T14:39:38.367Z,102739.00
2019-03-21T14:42:21.642Z,102733.00
2019-03-21T14:44:52.041Z,102727.00
2019-03-21T14:47:23.379Z,102724.00
2019-03-21T14:49:53.776Z,102727.00
2019-03-21T14:52:24.143Z,102717.00
2019-03-21T14:54:54.533Z,102726.00
2019-03-21T14:57:24.905Z,102717.00
2019-03-21T14:59:55.295Z,102726.00
2019-03-21T15:02:25.660Z,102730.00
2019-03-21T15:04:56.050Z,102725.00
2019-03-21T15:07:26.430Z,102733.00
2019-03-21T15:09:56.827Z,102716.00
2019-03-21T15:12:29.651Z,102717.00
2019-03-21T15:14:59.282Z,102711.00
2019-03-21T15:17:29.658Z,102708.00
2019-03-21T15:20:00.176Z,102708.00
2019-03-21T15:22:30.734Z,102717.00
2019-03-21T15:25:01.121Z,102711.00
2019-03-21T15:27:31.493Z,102712.00
2019-03-21T15:30:01.970Z,102714.00
2019-03-21T15:32:32.529Z,102709.00
2019-03-21T15:35:02.998Z,102709.00
2019-03-21T15:37:33.369Z,102708.00
2019-03-21T15:40:05.577Z,102709.00
2019-03-21T15:42:36.032Z,102721.00
2019-03-21T15:45:22.382Z,102713.00
2019-03-21T15:47:47.226Z,102714.00
2019-03-21T15:50:38.400Z,102709.00
2019-03-21T15:53:09.066Z,102706.00
2019-03-21T15:55:39.468Z,102707.00
2019-03-21T15:58:11.036Z,102700.00
2019-03-21T16:00:43.439Z,102698.00
2019-03-21T16:03:14.468Z,102705.00
2019-03-21T16:05:44.860Z,102688.00
2019-03-21T16:08:15.306Z,102698.00
2019-03-21T16:10:45.695Z,102699.00
2019-03-21T16:13:16.179Z,102696.00
2019-03-21T16:15:46.588Z,102686.00
2019-03-21T16:18:19.902Z,102686.00
2019-03-21T16:20:50.285Z,102688.00
2019-03-21T16:23:21.939Z,102684.00
2019-03-21T16:25:52.332Z,102683.00
2019-03-21T16:28:24.044Z,102684.00
2019-03-21T16:30:54.426Z,102685.00
2019-03-21T16:33:24.976Z,102679.00
2019-03-21T16:35:55.360Z,102674.00
2019-03-21T16:38:26.028Z,102675.00
2019-03-21T16:40:56.392Z,102674.00
2019-03-21T16:43:28.073Z,102683.00
2019-03-21T16:45:58.426Z,102676.00
2019-03-21T16:48:28.932Z,102673.00
2019-03-21T16:50:59.294Z,102670.00
2019-03-21T16:53:29.686Z,102676.00
2019-03-21T16:56:00.075Z,102669.00
2019-03-21T16:58:31.248Z,102671.00
2019-03-21T17:01:01.640Z,102665.00
2019-03-21T17:03:33.205Z,102672.00
2019-03-21T17:06:03.566Z,102682.00
2019-03-21T17:08:33.962Z,102681.00
2019-03-21T17:11:04.416Z,102685.00
2019-03-21T17:13:34.766Z,102676.00
2019-03-21T17:16:05.870Z,102684.00
2019-03-21T17:18:36.411Z,102675.00
2019-03-21T17:21:09.373Z,102683.00
2019-03-21T17:23:38.868Z,102688.00
2019-03-21T17:26:09.281Z,102675.00
2019-03-21T17:28:39.670Z,102678.00
2019-03-21T17:31:10.120Z,102679.00
2019-03-21T17:33:40.494Z,102676.00
2019-03-21T17:36:10.851Z,102681.00
2019-03-21T17:38:41.231Z,102682.00
2019-03-21T17:41:11.595Z,102676.00
2019-03-21T17:43:41.973Z,102678.00
2019-03-21T17:46:12.334Z,102671.00
2019-03-21T17:48:42.720Z,102673.00
2019-03-21T17:51:13.080Z,102672.00
2019-03-21T17:53:43.462Z,102664.00
2019-03-21T17:56:13.824Z,102679.00
2019-03-21T17:58:44.280Z,102677.00
2019-03-21T18:01:14.878Z,102675.00
2019-03-21T18:03:45.429Z,102679.00
2019-03-21T18:06:15.793Z,102676.00
2019-03-21T18:08:46.172Z,102679.00
2019-03-21T18:11:16.532Z,102680.00
2019-03-21T18:13:46.919Z,102679.00
2019-03-21T18:16:18.717Z,102680.00
2019-03-21T18:18:49.317Z,102690.00
2019-03-21T18:21:20.643Z,102685.00
2019-03-21T18:23:51.093Z,102677.00
2019-03-21T18:26:34.052Z,102682.00
2019-03-21T18:29:04.430Z,102693.00
2019-03-21T18:31:34.786Z,102687.00
2019-03-21T18:34:05.347Z,102683.00
2019-03-21T18:36:35.708Z,102691.00
2019-03-21T18:39:08.031Z,102692.00
2019-03-21T18:41:38.518Z,102699.00
2019-03-21T18:44:08.901Z,102683.00
2019-03-21T18:46:39.257Z,102685.00
2019-03-21T18:49:09.740Z,102691.00
2019-03-21T18:51:40.117Z,102690.00
2019-03-21T18:54:10.500Z,102684.00
2019-03-21T18:56:40.861Z,102691.00
2019-03-21T18:59:11.248Z,102700.00
2019-03-21T19:01:41.603Z,102708.00
2019-03-21T19:04:11.989Z,102714.00
2019-03-21T19:06:42.395Z,102709.00
2019-03-21T19:09:12.774Z,102711.00
2019-03-21T19:11:43.132Z,102707.00
2019-03-21T19:14:13.521Z,102708.00
2019-03-21T19:16:44.228Z,102713.00
2019-03-21T19:19:14.638Z,102717.00
2019-03-21T19:21:45.013Z,102717.00
2019-03-21T19:24:15.376Z,102717.00
2019-03-21T19:26:45.758Z,102714.00
2019-03-21T19:29:16.118Z,102719.00
2019-03-21T19:31:46.500Z,102722.00
2019-03-21T19:34:16.862Z,102722.00
2019-03-21T19:36:47.257Z,102734.00
2019-03-21T19:39:17.626Z,102734.00
2019-03-21T19:41:48.008Z,102729.00
2019-03-21T19:44:18.364Z,102727.00
2019-03-21T19:46:48.754Z,102724.00
2019-03-21T19:49:19.116Z,102728.00
2019-03-21T19:51:49.499Z,102720.00
2019-03-21T19:54:19.867Z,102727.00
2019-03-21T19:56:50.262Z,102724.00
2019-03-21T19:59:20.636Z,102723.00
2019-03-21T20:01:51.018Z,102722.00
2019-03-21T20:04:21.471Z,102720.00
2019-03-21T20:06:51.857Z,102722.00
2019-03-21T20:09:22.234Z,102728.00
2019-03-21T20:11:52.623Z,102730.00
2019-03-21T20:14:23.004Z,102730.00
2019-03-21T20:16:53.395Z,102735.00
2019-03-21T20:19:23.744Z,102727.00
2019-03-21T20:21:54.136Z,102726.00
2019-03-21T20:24:24.864Z,102727.00
2019-03-21T20:26:55.247Z,102728.00
2019-03-21T20:29:25.600Z,102725.00
2019-03-21T20:31:55.976Z,102733.00
2019-03-21T20:34:27.311Z,102727.00
2019-03-21T20:36:57.766Z,102730.00
2019-03-21T20:39:28.124Z,102730.00
2019-03-21T20:41:58.500Z,102719.00
2019-03-21T20:44:28.862Z,102720.00
2019-03-21T20:46:59.256Z,102731.00
2019-03-21T20:49:29.626Z,102729.00
2019-03-21T20:52:00.003Z,102730.00
2019-03-21T20:54:30.369Z,102723.00
2019-03-21T20:57:00.747Z,102729.00
2019-03-21T20:59:31.111Z,102727.00
2019-03-21T21:02:03.052Z,102729.00
2019-03-21T21:04:34.707Z,102722.00
2019-03-21T21:07:05.094Z,102733.00
2019-03-21T21:09:35.481Z,102728.00
2019-03-21T21:12:05.935Z,102730.00
2019-03-21T21:14:36.287Z,102739.00
2019-03-21T21:17:06.678Z,102748.00
2019-03-21T21:19:37.051Z,102746.00
2019-03-21T21:22:07.431Z,102754.00
2019-03-21T21:24:37.797Z,102751.00
2019-03-21T21:27:08.170Z,102745.00
2019-03-21T21:29:38.530Z,102759.00
2019-03-21T21:32:08.945Z,102754.00
2019-03-21T21:34:39.953Z,102751.00
2019-03-21T21:37:10.477Z,102759.00
2019-03-21T21:39:40.836Z,102755.00
2019-03-21T21:42:24.239Z,102750.00
2019-03-21T21:44:54.627Z,102750.00
2019-03-21T21:47:25.014Z,102752.00
2019-03-21T21:49:55.457Z,102753.00
2019-03-21T21:52:25.843Z,102748.00
2019-03-21T21:54:59.113Z,102736.00
2019-03-21T21:57:32.432Z,102743.00
2019-03-21T22:00:03.101Z,102737.00
2019-03-21T22:02:33.754Z,102743.00
2019-03-21T22:05:07.564Z,102743.00
2019-03-21T22:07:38.130Z,102736.00
2019-03-21T22:10:10.402Z,102736.00
2019-03-21T22:12:40.940Z,102744.00
2019-03-21T22:15:16.828Z,102741.00
2019-03-21T22:17:47.215Z,102740.00
2019-03-21T22:20:18.084Z,102743.00
2019-03-21T22:22:48.514Z,102742.00
2019-03-21T22:25:18.871Z,102742.00
2019-03-21T22:27:49.247Z,102735.00
2019-03-21T22:30:20.241Z,102730.00
2019-03-21T22:32:50.623Z,102738.00
2019-03-21T22:35:20.979Z,102741.00
2019-03-21T22:37:51.359Z,102734.00
2019-03-21T22:40:21.719Z,102736.00
2019-03-21T22:42:52.114Z,102733.00
2019-03-21T22:45:22.468Z,102723.00
2019-03-21T22:47:52.851Z,102730.00
2019-03-21T22:50:23.210Z,102726.00
2019-03-21T22:52:53.605Z,102730.00
2019-03-21T22:55:23.969Z,102736.00
2019-03-21T22:57:54.351Z,102731.00
2019-03-21T23:00:29.916Z,102730.00
2019-03-21T23:03:02.369Z,102737.00
2019-03-21T23:05:36.058Z,102725.00
2019-03-21T23:08:06.436Z,102736.00
2019-03-21T23:10:36.794Z,102738.00
2019-03-21T23:13:07.147Z,102733.00
2019-03-21T23:15:37.708Z,102735.00
2019-03-21T23:18:08.237Z,102729.00
2019-03-21T23:20:38.621Z,102740.00
2019-03-21T23:23:08.979Z,102741.00
2019-03-21T23:25:39.367Z,102732.00
2019-03-21T23:28:09.737Z,102734.00
2019-03-21T23:30:40.120Z,102729.00
2019-03-21T23:33:10.477Z,102730.00
2019-03-21T23:35:40.867Z,102726.00
2019-03-21T23:38:11.230Z,102720.00
2019-03-21T23:40:41.612Z,102724.00
2019-03-21T23:43:11.966Z,102723.00
2019-03-21T23:45:42.353Z,102724.00
2019-03-21T23:48:12.742Z,102725.00
2019-03-21T23:50:43.131Z,102719.00
2019-03-21T23:53:13.512Z,102717.00
2019-03-21T23:55:43.897Z,102720.00
2019-03-21T23:58:14.265Z,102717.00
